createdAt,value
2023-06-03T00:03:30.280Z,4.13
2023-06-03T00:06:15.610Z,3.60
2023-06-03T00:09:00.926Z,4.13
2023-06-03T00:11:46.413Z,4.65
2023-06-03T00:14:31.777Z,3.45
2023-06-03T02:46:06.935Z,2.78
2023-06-03T02:48:52.288Z,5.18
2023-06-03T02:51:43.885Z,5.47
2023-06-03T02:54:29.486Z,3.87
2023-06-03T02:57:14.784Z,4.90
2023-06-03T03:00:00.332Z,4.15
2023-06-03T03:46:59.559Z,4.10
2023-06-03T03:49:45.288Z,4.80
2023-06-03T03:52:35.431Z,3.33
2023-06-03T03:55:22.592Z,2.70
2023-06-03T03:58:28.139Z,3.88
2023-06-03T04:47:02.074Z,3.35
2023-06-03T04:49:49.710Z,3.72
2023-06-03T04:52:36.672Z,3.63
2023-06-03T04:55:27.600Z,4.67
2023-06-03T04:58:13.286Z,2.65
2023-06-03T05:00:58.661Z,3.75
2023-06-03T05:03:45.627Z,5.20
2023-06-03T05:06:33.467Z,2.08
2023-06-03T05:09:18.757Z,2.93
2023-06-03T05:12:07.508Z,3.00
2023-06-03T05:14:54.029Z,2.97
2023-06-03T05:17:44.117Z,4.07
2023-06-03T05:20:30.269Z,4.25
2023-06-03T05:23:15.873Z,2.60
2023-06-03T05:26:01.901Z,4.03
2023-06-03T05:28:49.579Z,4.18
2023-06-03T05:31:35.870Z,4.18
2023-06-03T05:34:21.800Z,3.97
2023-06-03T05:37:07.136Z,3.67
2023-06-03T05:39:52.574Z,4.03
2023-06-03T05:42:38.109Z,9.25
2023-06-03T05:45:23.438Z,3.65
2023-06-03T05:48:08.776Z,4.10
2023-06-03T05:50:57.309Z,3.53
2023-06-03T05:53:46.451Z,3.10
2023-06-03T05:56:35.793Z,2.67
2023-06-03T05:59:21.232Z,3.20
2023-06-03T06:02:07.089Z,2.85
2023-06-03T06:04:52.694Z,3.53
2023-06-03T06:07:37.927Z,3.63
2023-06-03T06:10:23.504Z,3.92
2023-06-03T06:13:09.036Z,4.65
2023-06-03T06:15:58.798Z,3.10
2023-06-03T06:18:44.167Z,2.67
2023-06-03T06:21:29.782Z,3.20
2023-06-03T06:24:15.219Z,4.70
2023-06-03T06:27:01.389Z,3.92
2023-06-03T06:29:46.754Z,4.82
2023-06-03T06:32:36.870Z,2.33
2023-06-03T06:35:28.499Z,4.13
2023-06-03T06:38:15.693Z,3.90
2023-06-03T06:41:01.474Z,3.50
2023-06-03T06:43:46.582Z,2.50
2023-06-03T06:46:34.796Z,2.33
2023-06-03T06:49:20.338Z,2.63
2023-06-03T06:52:06.921Z,2.00
2023-06-03T06:55:00.359Z,3.45
2023-06-03T06:57:46.974Z,3.40
2023-06-03T07:00:32.422Z,4.93
2023-06-03T07:03:19.009Z,3.05
2023-06-03T07:06:04.814Z,2.90
2023-06-03T07:08:52.662Z,2.70
2023-06-03T07:11:47.592Z,2.47
2023-06-03T07:14:35.654Z,2.40
2023-06-03T07:17:21.181Z,2.45
2023-06-03T07:20:07.058Z,3.47
2023-06-03T07:22:53.428Z,4.97
2023-06-03T07:25:39.625Z,3.80
2023-06-03T07:28:32.692Z,3.87
2023-06-03T07:31:23.572Z,3.45
2023-06-03T07:34:09.381Z,3.55
2023-06-03T07:37:02.977Z,3.13
2023-06-03T07:39:52.256Z,4.10
2023-06-03T07:42:38.055Z,4.83
2023-06-03T07:45:27.635Z,4.25
2023-06-03T07:48:15.301Z,4.85
2023-06-03T07:51:01.708Z,3.58
2023-06-03T07:53:47.079Z,3.65
2023-06-03T07:56:34.005Z,3.37
2023-06-03T07:59:22.587Z,5.78
2023-06-03T08:02:12.726Z,4.10
2023-06-03T08:05:03.991Z,4.10
2023-06-03T08:07:49.209Z,3.03
2023-06-03T08:10:35.892Z,3.73
2023-06-03T08:13:20.796Z,7.38
2023-06-03T08:16:06.739Z,3.00
2023-06-03T08:18:53.386Z,3.35
2023-06-03T08:21:39.767Z,4.78
2023-06-03T08:24:25.596Z,2.87
2023-06-03T08:27:10.765Z,3.92
2023-06-03T08:29:58.730Z,4.40
2023-06-03T08:32:44.364Z,3.33
2023-06-03T08:35:30.744Z,4.18
2023-06-03T08:38:17.679Z,5.60
2023-06-03T08:41:05.042Z,3.45
2023-06-03T08:43:54.718Z,4.82
2023-06-03T08:46:45.041Z,4.95
2023-06-03T08:49:38.677Z,2.25
2023-06-03T08:52:24.345Z,3.60
2023-06-03T08:55:12.244Z,4.25
2023-06-03T08:58:01.423Z,4.13
2023-06-03T09:00:48.137Z,4.78
2023-06-03T09:03:33.758Z,4.10
2023-06-03T09:06:19.082Z,6.37
2023-06-03T09:09:04.892Z,4.45
2023-06-03T09:11:51.091Z,5.15
2023-06-03T09:14:38.332Z,3.67
2023-06-03T09:17:25.938Z,6.35
2023-06-03T09:20:12.402Z,5.80
2023-06-03T09:22:58.203Z,5.00
2023-06-03T09:25:46.308Z,3.95
2023-06-03T09:28:32.375Z,4.97
2023-06-03T09:31:18.485Z,4.40
2023-06-03T09:34:03.936Z,4.33
2023-06-03T09:36:50.266Z,4.47
2023-06-03T09:39:36.681Z,10.07
2023-06-03T09:42:21.762Z,6.65
2023-06-03T09:45:07.626Z,6.18
2023-06-03T09:47:54.717Z,8.90
2023-06-03T09:50:48.832Z,11.05
2023-06-03T09:53:34.214Z,5.35
2023-06-03T09:56:24.044Z,9.40
2023-06-03T09:59:22.210Z,9.23
2023-06-03T10:02:14.909Z,6.70
2023-06-03T10:05:01.916Z,6.32
2023-06-03T10:07:47.846Z,8.95
2023-06-03T10:10:34.488Z,7.38
2023-06-03T10:13:21.471Z,6.97
2023-06-03T10:16:13.595Z,8.30
2023-06-03T10:18:59.422Z,6.63
2023-06-03T10:21:45.491Z,7.90
2023-06-03T10:24:32.328Z,7.45
2023-06-03T10:27:18.617Z,5.95
2023-06-03T10:30:07.255Z,10.83
2023-06-03T10:32:54.029Z,6.53
2023-06-03T10:35:39.967Z,9.05
2023-06-03T10:38:25.736Z,7.93
2023-06-03T10:41:13.319Z,6.68
2023-06-03T10:43:58.673Z,9.00
2023-06-03T10:46:47.310Z,8.60
2023-06-03T10:49:34.847Z,8.00
2023-06-03T10:52:24.108Z,7.35
2023-06-03T10:55:12.297Z,8.77
2023-06-03T10:58:03.236Z,7.13
2023-06-03T11:01:05.446Z,8.63
2023-06-03T11:03:53.632Z,5.43
2023-06-03T11:06:39.318Z,6.65
2023-06-03T11:09:31.329Z,5.05
2023-06-03T11:12:16.777Z,5.37
2023-06-03T11:15:02.272Z,7.07
2023-06-03T11:18:13.774Z,4.28
2023-06-03T11:20:59.589Z,5.13
2023-06-03T11:23:48.416Z,4.40
2023-06-03T11:26:34.635Z,5.70
2023-06-03T11:29:40.044Z,6.05
2023-06-03T11:32:29.614Z,5.85
2023-06-03T11:35:28.113Z,4.82
2023-06-03T11:38:13.244Z,7.57
2023-06-03T11:40:58.223Z,5.67
2023-06-03T11:44:03.300Z,6.05
2023-06-03T11:46:54.828Z,3.88
2023-06-03T11:49:40.740Z,7.95
2023-06-03T11:52:26.772Z,6.97
2023-06-03T11:55:12.044Z,5.57
2023-06-03T11:58:10.227Z,5.38
2023-06-03T12:01:06.655Z,8.35
2023-06-03T12:03:59.165Z,7.30
2023-06-03T12:06:44.568Z,4.43
2023-06-03T12:09:31.124Z,5.93
2023-06-03T12:12:16.925Z,5.35
2023-06-03T12:15:06.285Z,5.68
2023-06-03T12:17:52.125Z,5.32
2023-06-03T12:20:37.613Z,5.75
2023-06-03T12:23:22.940Z,7.93
2023-06-03T12:26:08.081Z,7.10
2023-06-03T12:29:04.925Z,5.40
2023-06-03T12:31:57.167Z,7.82
2023-06-03T12:34:45.176Z,6.50
2023-06-03T12:37:31.162Z,8.07
2023-06-03T12:40:25.425Z,4.88
2023-06-03T12:43:20.388Z,5.28
2023-06-03T12:46:15.525Z,5.95
2023-06-03T12:49:16.747Z,5.85
2023-06-03T12:52:20.765Z,6.20
2023-06-03T12:55:08.621Z,5.07
2023-06-03T12:57:54.473Z,4.88
2023-06-03T13:00:39.969Z,5.03
2023-06-03T13:03:25.392Z,5.20
2023-06-03T13:06:10.330Z,7.47
2023-06-03T13:08:55.691Z,4.78
2023-06-03T13:11:41.336Z,4.13
2023-06-03T13:14:26.535Z,5.18
2023-06-03T13:17:12.173Z,5.40
2023-06-03T13:19:57.639Z,6.97
2023-06-03T13:22:43.170Z,4.07
2023-06-03T13:25:28.536Z,5.28
2023-06-03T13:28:14.312Z,5.13
2023-06-03T13:30:59.841Z,4.78
2023-06-03T13:33:45.132Z,3.90
2023-06-03T13:36:30.583Z,3.50
2023-06-03T13:39:18.565Z,6.88
2023-06-03T13:42:04.482Z,4.50
2023-06-03T13:44:50.447Z,3.85
2023-06-03T13:47:35.989Z,5.17
2023-06-03T13:50:21.256Z,6.00
2023-06-03T13:53:06.485Z,8.70
2023-06-03T13:55:53.146Z,5.25
2023-06-03T13:58:38.612Z,4.03
2023-06-03T14:01:23.975Z,3.00
2023-06-03T14:04:09.242Z,3.78
2023-06-03T14:06:55.613Z,3.88
2023-06-03T14:09:41.082Z,4.25
2023-06-03T14:12:26.538Z,4.22
2023-06-03T14:15:11.677Z,5.87
2023-06-03T14:17:57.033Z,6.22
2023-06-03T14:20:42.570Z,2.83
2023-06-03T14:23:27.785Z,4.32
2023-06-03T14:26:13.602Z,2.80
2023-06-03T14:28:58.764Z,3.83
2023-06-03T14:31:44.916Z,3.92
2023-06-03T14:34:30.485Z,3.35
2023-06-03T14:37:16.727Z,2.90
2023-06-03T14:40:02.596Z,3.50
2023-06-03T14:42:48.014Z,3.63
2023-06-03T14:45:33.031Z,4.85
2023-06-03T14:48:18.371Z,4.65
2023-06-03T14:51:04.362Z,3.63
2023-06-03T14:53:49.731Z,3.80
2023-06-03T14:56:35.023Z,3.73
2023-06-03T14:59:20.425Z,2.75
2023-06-03T15:02:05.718Z,3.55
2023-06-03T15:04:50.833Z,3.20
2023-06-03T15:07:36.235Z,5.28
2023-06-03T15:10:21.467Z,5.93
2023-06-03T15:13:06.567Z,3.50
2023-06-03T15:15:52.026Z,5.00
2023-06-03T15:18:37.183Z,2.20
2023-06-03T15:21:22.710Z,3.63
2023-06-03T15:24:08.426Z,4.30
2023-06-03T15:26:54.071Z,3.25
2023-06-03T15:29:39.400Z,3.42
2023-06-03T15:32:24.870Z,5.38
2023-06-03T15:35:10.629Z,2.75
2023-06-03T15:37:56.243Z,3.47
2023-06-03T15:40:41.676Z,3.95
2023-06-03T15:43:26.677Z,5.50
2023-06-03T15:46:11.980Z,3.58
2023-06-03T15:48:57.172Z,4.10
2023-06-03T15:51:42.449Z,4.20
2023-06-03T15:54:27.915Z,2.92
2023-06-03T15:57:13.239Z,4.05
2023-06-03T15:59:58.923Z,3.70
2023-06-03T16:02:44.154Z,3.60
2023-06-03T16:05:29.367Z,3.00
2023-06-03T16:08:14.913Z,3.08
2023-06-03T16:11:01.203Z,2.67
2023-06-03T16:13:46.435Z,3.30
2023-06-03T16:16:32.825Z,4.00
2023-06-03T16:19:18.584Z,3.77
2023-06-03T16:22:03.886Z,4.53
2023-06-03T16:24:49.651Z,2.53
2023-06-03T16:27:35.318Z,3.55
2023-06-03T16:30:21.516Z,3.75
2023-06-03T16:33:06.887Z,3.93
2023-06-03T16:35:52.012Z,2.95
2023-06-03T16:38:38.539Z,3.95
2023-06-03T16:41:25.174Z,2.60
2023-06-03T16:44:10.887Z,3.35
2023-06-03T16:46:56.191Z,3.10
2023-06-03T16:49:41.119Z,2.13
2023-06-03T16:52:26.505Z,3.55
2023-06-03T16:55:11.564Z,2.73
2023-06-03T16:57:56.498Z,2.50
2023-06-03T17:00:41.697Z,3.63
2023-06-03T17:03:26.798Z,3.55
2023-06-03T17:06:11.798Z,3.15
2023-06-03T17:08:57.299Z,3.70
2023-06-03T17:11:43.108Z,3.75
2023-06-03T17:14:28.287Z,3.08
2023-06-03T17:17:13.717Z,4.38
2023-06-03T17:19:58.902Z,3.13
2023-06-03T17:22:44.356Z,3.67
2023-06-03T17:25:29.665Z,3.13
2023-06-03T17:28:14.847Z,4.65
2023-06-03T17:31:00.085Z,2.15
2023-06-03T17:33:48.658Z,2.33
2023-06-03T17:36:33.799Z,3.17
2023-06-03T17:39:19.157Z,2.85
2023-06-03T17:42:04.892Z,2.65
2023-06-03T17:44:50.941Z,3.10
2023-06-03T17:47:36.583Z,3.25
2023-06-03T17:50:22.169Z,3.93
2023-06-03T17:53:07.733Z,3.22
2023-06-03T17:55:53.120Z,3.53
2023-06-03T17:58:38.263Z,4.05
2023-06-03T18:17:06.674Z,3.97
2023-06-03T18:19:55.894Z,4.37
2023-06-03T18:22:42.496Z,3.22
2023-06-03T18:25:28.002Z,4.50
2023-06-03T18:28:13.565Z,5.47
2023-06-03T18:30:58.915Z,4.18
2023-06-03T18:33:44.573Z,2.57
2023-06-03T18:36:29.818Z,5.10
2023-06-03T18:39:15.059Z,4.18
2023-06-03T18:42:00.523Z,3.83
2023-06-03T18:44:46.013Z,4.30
2023-06-03T18:47:31.301Z,5.60
2023-06-03T18:50:16.844Z,3.28
2023-06-03T18:53:02.236Z,5.15
2023-06-03T18:55:47.392Z,6.55
2023-06-03T18:58:32.745Z,4.43
2023-06-03T19:01:18.395Z,5.77
2023-06-03T19:04:03.846Z,4.05
2023-06-03T19:06:49.397Z,4.03
2023-06-03T19:09:34.671Z,4.68
2023-06-03T19:12:20.476Z,7.30
2023-06-03T19:15:06.033Z,4.20
2023-06-03T19:17:51.286Z,5.95
2023-06-03T19:20:36.996Z,4.60
2023-06-03T19:23:22.315Z,3.47
2023-06-03T19:26:07.899Z,3.85
2023-06-03T19:28:54.628Z,3.27
2023-06-03T19:31:40.142Z,3.70
2023-06-03T19:34:25.504Z,3.17
2023-06-03T19:37:10.790Z,3.42
2023-06-03T19:39:57.483Z,3.60
2023-06-03T19:42:44.654Z,4.70
2023-06-03T19:45:31.178Z,6.20
2023-06-03T19:48:16.939Z,4.85
2023-06-03T19:51:02.326Z,4.40
2023-06-03T19:53:49.839Z,3.25
2023-06-03T19:56:34.994Z,2.67
2023-06-03T19:59:21.457Z,4.30
2023-06-03T20:02:08.163Z,4.35
2023-06-03T20:04:53.358Z,5.10
2023-06-03T20:07:40.175Z,3.08
2023-06-03T20:10:25.794Z,3.47
2023-06-03T20:13:18.048Z,3.30
2023-06-03T20:16:15.006Z,2.85
2023-06-03T20:19:00.643Z,3.10
2023-06-03T20:21:47.005Z,3.45
2023-06-03T20:24:57.280Z,2.73
2023-06-03T20:27:42.722Z,4.88
2023-06-03T20:30:27.877Z,3.33
2023-06-03T20:33:13.268Z,4.28
2023-06-03T20:35:59.447Z,3.17
2023-06-03T20:38:44.678Z,3.27
2023-06-03T20:41:30.311Z,3.15
2023-06-03T20:44:15.777Z,3.40
2023-06-03T20:47:01.163Z,4.18
2023-06-03T20:49:46.529Z,2.72
2023-06-03T20:52:31.611Z,3.03
2023-06-03T20:55:16.768Z,2.92
2023-06-03T20:58:02.482Z,2.53
2023-06-03T21:00:48.008Z,3.85
2023-06-03T21:03:33.488Z,2.78
2023-06-03T21:06:18.736Z,4.10
2023-06-03T21:09:04.167Z,3.35
2023-06-03T21:11:49.560Z,2.60
2023-06-03T21:14:34.778Z,2.40
2023-06-03T21:17:21.298Z,3.30
2023-06-03T21:20:07.656Z,3.53
2023-06-03T21:22:53.673Z,5.68
2023-06-03T21:25:39.164Z,2.78
2023-06-03T21:28:24.148Z,4.20
2023-06-03T21:31:09.810Z,3.65
2023-06-03T21:33:55.307Z,2.90
2023-06-03T21:36:40.783Z,3.03
2023-06-03T21:39:25.849Z,4.03
2023-06-03T21:42:11.204Z,3.38
2023-06-03T21:44:56.538Z,3.45
2023-06-03T21:47:41.958Z,5.17
2023-06-03T21:50:27.188Z,4.25
2023-06-03T21:53:12.118Z,4.20
2023-06-03T21:55:57.432Z,4.93
2023-06-03T21:58:42.884Z,7.15
2023-06-03T22:01:29.078Z,8.87
2023-06-03T22:04:14.399Z,9.32
2023-06-03T22:06:59.690Z,10.18
2023-06-03T22:09:44.975Z,8.90
2023-06-03T22:12:30.589Z,9.07
2023-06-03T22:15:15.807Z,9.17
2023-06-03T22:18:00.812Z,13.32
2023-06-03T22:20:46.009Z,9.65
2023-06-03T22:23:31.360Z,9.57
2023-06-03T22:26:16.898Z,9.43
2023-06-03T22:29:02.143Z,11.50
2023-06-03T22:31:47.722Z,9.98
2023-06-03T22:34:33.168Z,10.45
2023-06-03T22:37:18.655Z,10.07
2023-06-03T22:40:04.647Z,9.50
2023-06-03T22:42:49.963Z,10.27
2023-06-03T22:45:35.299Z,11.02
2023-06-03T22:48:21.102Z,11.02
2023-06-03T22:51:07.499Z,10.85
2023-06-03T22:53:53.057Z,11.52
2023-06-03T22:56:38.427Z,10.17
2023-06-03T22:59:23.781Z,9.35
2023-06-03T23:02:09.255Z,11.43
2023-06-03T23:04:54.646Z,9.55
2023-06-03T23:07:40.318Z,11.25
2023-06-03T23:10:25.320Z,9.40
2023-06-03T23:13:10.425Z,8.52
